Thunder radar more information blitzortung!


Radar de pluja more information rain snow radar


Visita la nostra xarxa de llocs de meteo:

Template documentation
and downloads

And another site



No particular awareness of the weather is required.    There are no Weather-warnings

Pagina Historial Weather Underground text

Diari Resum Juliol 1, 2017 Unitats:  Tant    Imperial   Mètric
« Previous Dia
SegĂźent Dia »
Diari Setmana Mensual Anual Personalitzada
  Maxima: Minima: Media:
Temperatura: 79.2 °F /  26.2 °C 59.4 °F /  15.2 °C 69.6 °F /  20.9 °C
Punt de rosada: 49.5 °F /  9.7 °C 39.4 °F /  4.1 °C 45.3 °F /  7.4 °C
Humitat: 49 % 30 % 42 %
Wind Speed: 13.8 mph /  22.2 km/h - 5.1 mph /  8.2 km/h
RĂ fegues de vent: 13.8 mph /  22.2 km/h - -
Vent:- - ESE
Pression baro: 30.2 in /  1020.9 hPa 30 in /  1015.8 hPa -
Precipitacions: 0 in /  0.0 mm    
Historical Graphs
 
 
Dades de taula per Juliol 1, 2017
Temps Temperatura Punt de rosada Pression baro Vent Wind Speed RĂ fegues de vent Humitat Rainfall Rate (Hourly)
00:04 66.7 °F /  19.3 °C 43 °F /  6.1 °C 30 in /  1015.8 hPa NNE 4.6 mph /  7.4 km/h 4.6 mph /  7.4 km/h 42 % 0 in /  0.0 mm
00:05 61.3 °F /  16.3 °C 40.8 °F /  4.9 °C 30 in /  1015.8 hPa WSW 1 mph /  1.6 km/h 3 mph /  4.8 km/h 47 % 0 in /  0.0 mm
00:15 61.2 °F /  16.2 °C 40.8 °F /  4.9 °C 30 in /  1015.8 hPa SW 1 mph /  1.6 km/h 3 mph /  4.8 km/h 47 % 0 in /  0.0 mm
00:25 61 °F /  16.1 °C 40.6 °F /  4.8 °C 30 in /  1015.8 hPa WSW 1 mph /  1.6 km/h 2 mph /  3.2 km/h 47 % 0 in /  0.0 mm
00:35 60.6 °F /  15.9 °C 40.3 °F /  4.6 °C 30 in /  1016.8 hPa WSW 1 mph /  1.6 km/h 2 mph /  3.2 km/h 47 % 0 in /  0.0 mm
00:45 60.4 °F /  15.8 °C 40.1 °F /  4.5 °C 30 in /  1016.8 hPa WSW 3 mph /  4.8 km/h 4 mph /  6.4 km/h 47 % 0 in /  0.0 mm
00:55 60.4 °F /  15.8 °C 40.1 °F /  4.5 °C 30 in /  1016.8 hPa WSW 3 mph /  4.8 km/h 4 mph /  6.4 km/h 47 % 0 in /  0.0 mm
01:05 60.3 °F /  15.7 °C 39.9 °F /  4.4 °C 30.1 in /  1017.8 hPa WSW 3 mph /  4.8 km/h 4 mph /  6.4 km/h 47 % 0 in /  0.0 mm
01:15 60.1 °F /  15.6 °C 39.7 °F /  4.3 °C 30.1 in /  1017.8 hPa WSW 2 mph /  3.2 km/h 3 mph /  4.8 km/h 47 % 0 in /  0.0 mm
01:25 60.1 °F /  15.6 °C 39.7 °F /  4.3 °C 30.1 in /  1017.8 hPa SW 1 mph /  1.6 km/h 2 mph /  3.2 km/h 47 % 0 in /  0.0 mm
01:35 60.3 °F /  15.7 °C 39.9 °F /  4.4 °C 30.1 in /  1017.8 hPa WSW 2 mph /  3.2 km/h 6 mph /  9.7 km/h 47 % 0 in /  0.0 mm
01:45 60.3 °F /  15.7 °C 39.9 °F /  4.4 °C 30.1 in /  1017.8 hPa West 3 mph /  4.8 km/h 4 mph /  6.4 km/h 47 % 0 in /  0.0 mm
01:55 60.1 °F /  15.6 °C 39.7 °F /  4.3 °C 30 in /  1016.8 hPa WSW 3 mph /  4.8 km/h 6 mph /  9.7 km/h 47 % 0 in /  0.0 mm
02:05 60.1 °F /  15.6 °C 39.7 °F /  4.3 °C 30 in /  1016.8 hPa WSW 6 mph /  9.7 km/h 6 mph /  9.7 km/h 47 % 0 in /  0.0 mm
02:15 59.9 °F /  15.5 °C 39.6 °F /  4.2 °C 30 in /  1016.8 hPa WSW 3 mph /  4.8 km/h 7 mph /  11.3 km/h 47 % 0 in /  0.0 mm
02:25 59.9 °F /  15.5 °C 40.1 °F /  4.5 °C 30.1 in /  1017.8 hPa WSW 1 mph /  1.6 km/h 4 mph /  6.4 km/h 48 % 0 in /  0.0 mm
02:35 59.7 °F /  15.4 °C 39.4 °F /  4.1 °C 30 in /  1016.8 hPa WSW 3 mph /  4.8 km/h 3 mph /  4.8 km/h 47 % 0 in /  0.0 mm
02:45 59.5 °F /  15.3 °C 39.7 °F /  4.3 °C 30 in /  1016.8 hPa WSW 2 mph /  3.2 km/h 4 mph /  6.4 km/h 48 % 0 in /  0.0 mm
02:55 59.4 °F /  15.2 °C 39.7 °F /  4.3 °C 30.1 in /  1017.8 hPa WSW 2 mph /  3.2 km/h 3 mph /  4.8 km/h 48 % 0 in /  0.0 mm
03:05 59.4 °F /  15.2 °C 39.7 °F /  4.3 °C 30 in /  1016.8 hPa West 1 mph /  1.6 km/h 4 mph /  6.4 km/h 48 % 0 in /  0.0 mm
03:15 59.5 °F /  15.3 °C 40.3 °F /  4.6 °C 30 in /  1016.8 hPa WNW 1 mph /  1.6 km/h 3 mph /  4.8 km/h 49 % 0 in /  0.0 mm
03:25 59.9 °F /  15.5 °C 40.6 °F /  4.8 °C 30.1 in /  1017.8 hPa NW 3 mph /  4.8 km/h 3 mph /  4.8 km/h 49 % 0 in /  0.0 mm
03:35 60.6 °F /  15.9 °C 41.4 °F /  5.2 °C 30.1 in /  1017.8 hPa WNW 2 mph /  3.2 km/h 4 mph /  6.4 km/h 49 % 0 in /  0.0 mm
03:45 61.2 °F /  16.2 °C 41.7 °F /  5.4 °C 30.1 in /  1017.8 hPa West 2 mph /  3.2 km/h 3 mph /  4.8 km/h 49 % 0 in /  0.0 mm
03:55 61.5 °F /  16.4 °C 42.3 °F /  5.7 °C 30.1 in /  1017.8 hPa West 2 mph /  3.2 km/h 4 mph /  6.4 km/h 49 % 0 in /  0.0 mm
04:05 62.6 °F /  17.0 °C 42.6 °F /  5.9 °C 30.1 in /  1017.8 hPa West 2 mph /  3.2 km/h 2 mph /  3.2 km/h 48 % 0 in /  0.0 mm
04:15 63.5 °F /  17.5 °C 43.3 °F /  6.3 °C 30.1 in /  1017.8 hPa West 3 mph /  4.8 km/h 3 mph /  4.8 km/h 48 % 0 in /  0.0 mm
04:25 64.2 °F /  17.9 °C 43.5 °F /  6.4 °C 30.1 in /  1018.8 hPa WNW 2 mph /  3.2 km/h 3 mph /  4.8 km/h 47 % 0 in /  0.0 mm
04:35 65.7 °F /  18.7 °C 45 °F /  7.2 °C 30.1 in /  1017.8 hPa WNW 2 mph /  3.2 km/h 4 mph /  6.4 km/h 47 % 0 in /  0.0 mm
04:45 65.5 °F /  18.6 °C 44.8 °F /  7.1 °C 30.1 in /  1017.8 hPa WSW 2 mph /  3.2 km/h 4 mph /  6.4 km/h 47 % 0 in /  0.0 mm
04:55 65.8 °F /  18.8 °C 44.4 °F /  6.9 °C 30.1 in /  1017.8 hPa WSW 3 mph /  4.8 km/h 3 mph /  4.8 km/h 46 % 0 in /  0.0 mm
09:57 66.6 °F /  19.2 °C 44.4 °F /  6.9 °C 30.1 in /  1017.8 hPa West 4.6 mph /  7.4 km/h 4.6 mph /  7.4 km/h 45 % 0 in /  0.0 mm
10:02 66.6 °F /  19.2 °C 44.4 °F /  6.9 °C 30.1 in /  1017.8 hPa WSW 6.9 mph /  11.1 km/h 6.9 mph /  11.1 km/h 45 % 0 in /  0.0 mm
10:03 66.6 °F /  19.2 °C 44.4 °F /  6.9 °C 30.1 in /  1017.8 hPa WSW 6.9 mph /  11.1 km/h 6.9 mph /  11.1 km/h 45 % 0 in /  0.0 mm
10:08 66.9 °F /  19.4 °C 45 °F /  7.2 °C 30.1 in /  1017.8 hPa WSW 4.6 mph /  7.4 km/h 4.6 mph /  7.4 km/h 45 % 0 in /  0.0 mm
10:13 66.7 °F /  19.3 °C 44.8 °F /  7.1 °C 30.1 in /  1017.8 hPa NE 5.8 mph /  9.3 km/h 5.8 mph /  9.3 km/h 45 % 0 in /  0.0 mm
10:18 67.3 °F /  19.6 °C 45.1 °F /  7.3 °C 30.1 in /  1017.8 hPa ENE 5.8 mph /  9.3 km/h 5.8 mph /  9.3 km/h 45 % 0 in /  0.0 mm
10:23 66.6 °F /  19.2 °C 44.4 °F /  6.9 °C 30.1 in /  1017.8 hPa NNE 6.9 mph /  11.1 km/h 6.9 mph /  11.1 km/h 45 % 0 in /  0.0 mm
10:28 67.1 °F /  19.5 °C 45 °F /  7.2 °C 30.1 in /  1017.8 hPa NE 6.4 mph /  10.3 km/h 6.4 mph /  10.3 km/h 45 % 0 in /  0.0 mm
10:33 67.5 °F /  19.7 °C 45.3 °F /  7.4 °C 30.1 in /  1017.8 hPa ESE 5.8 mph /  9.3 km/h 5.8 mph /  9.3 km/h 45 % 0 in /  0.0 mm
10:38 68 °F /  20.0 °C 45.9 °F /  7.7 °C 30.1 in /  1017.8 hPa ENE 4.6 mph /  7.4 km/h 4.6 mph /  7.4 km/h 45 % 0 in /  0.0 mm
10:43 68.4 °F /  20.2 °C 45.7 °F /  7.6 °C 30.1 in /  1017.8 hPa SSE 5.8 mph /  9.3 km/h 5.8 mph /  9.3 km/h 44 % 0 in /  0.0 mm
10:48 68.4 °F /  20.2 °C 45.7 °F /  7.6 °C 30.1 in /  1017.8 hPa ENE 6.9 mph /  11.1 km/h 6.9 mph /  11.1 km/h 44 % 0 in /  0.0 mm
10:53 68.4 °F /  20.2 °C 45.7 °F /  7.6 °C 30.1 in /  1017.8 hPa ENE 5.8 mph /  9.3 km/h 5.8 mph /  9.3 km/h 44 % 0 in /  0.0 mm
10:58 68.4 °F /  20.2 °C 45.7 °F /  7.6 °C 30 in /  1016.8 hPa NNE 5.8 mph /  9.3 km/h 5.8 mph /  9.3 km/h 44 % 0 in /  0.0 mm
11:03 68.2 °F /  20.1 °C 45.3 °F /  7.4 °C 30 in /  1016.8 hPa ENE 5.9 mph /  9.5 km/h 5.9 mph /  9.5 km/h 44 % 0 in /  0.0 mm
11:08 68.9 °F /  20.5 °C 46 °F /  7.8 °C 30 in /  1016.8 hPa ENE 4.5 mph /  7.2 km/h 4.5 mph /  7.2 km/h 44 % 0 in /  0.0 mm
11:10 68.4 °F /  20.2 °C 45 °F /  7.2 °C 30 in /  1016.8 hPa NE 5.8 mph /  9.3 km/h 5.8 mph /  9.3 km/h 43 % 0 in /  0.0 mm
11:15 69.3 °F /  20.7 °C 46.4 °F /  8.0 °C 30.1 in /  1017.8 hPa East 4.6 mph /  7.4 km/h 4.6 mph /  7.4 km/h 44 % 0 in /  0.0 mm
11:20 69.6 °F /  20.9 °C 46.8 °F /  8.2 °C 30.1 in /  1017.8 hPa ENE 5.8 mph /  9.3 km/h 5.8 mph /  9.3 km/h 44 % 0 in /  0.0 mm
11:25 69.4 °F /  20.8 °C 46 °F /  7.8 °C 30.1 in /  1017.8 hPa NE 8.1 mph /  13.0 km/h 8.1 mph /  13.0 km/h 43 % 0 in /  0.0 mm
11:30 70.2 °F /  21.2 °C 46 °F /  7.8 °C 30 in /  1016.8 hPa NNE 8.1 mph /  13.0 km/h 8.1 mph /  13.0 km/h 42 % 0 in /  0.0 mm
11:35 70.7 °F /  21.5 °C 46.6 °F /  8.1 °C 30 in /  1016.8 hPa ENE 5.8 mph /  9.3 km/h 5.8 mph /  9.3 km/h 42 % 0 in /  0.0 mm
11:40 70.3 °F /  21.3 °C 46.2 °F /  7.9 °C 30 in /  1016.8 hPa SE 4.6 mph /  7.4 km/h 4.6 mph /  7.4 km/h 42 % 0 in /  0.0 mm
11:45 70.7 °F /  21.5 °C 46.6 °F /  8.1 °C 30.1 in /  1017.8 hPa ESE 4.6 mph /  7.4 km/h 4.6 mph /  7.4 km/h 42 % 0 in /  0.0 mm
11:50 71.6 °F /  22.0 °C 47.3 °F /  8.5 °C 30.1 in /  1017.8 hPa ESE 4.6 mph /  7.4 km/h 4.6 mph /  7.4 km/h 42 % 0 in /  0.0 mm
11:55 72 °F /  22.2 °C 47.7 °F /  8.7 °C 30.1 in /  1017.8 hPa North 4.6 mph /  7.4 km/h 4.6 mph /  7.4 km/h 42 % 0 in /  0.0 mm
12:00 71.1 °F /  21.7 °C 46.8 °F /  8.2 °C 30 in /  1016.8 hPa NE 6.2 mph /  10.0 km/h 6.2 mph /  10.0 km/h 42 % 0 in /  0.0 mm
12:05 71.4 °F /  21.9 °C 47.1 °F /  8.4 °C 30 in /  1016.8 hPa NNE 3.6 mph /  5.8 km/h 3.6 mph /  5.8 km/h 42 % 0 in /  0.0 mm
12:10 72.7 °F /  22.6 °C 47.7 °F /  8.7 °C 30 in /  1016.8 hPa ENE 4.7 mph /  7.6 km/h 4.7 mph /  7.6 km/h 41 % 0 in /  0.0 mm
12:15 73.6 °F /  23.1 °C 47.8 °F /  8.8 °C 30.1 in /  1017.8 hPa West 5.8 mph /  9.3 km/h 5.8 mph /  9.3 km/h 40 % 0 in /  0.0 mm
12:20 73.6 °F /  23.1 °C 47.8 °F /  8.8 °C 30.1 in /  1017.8 hPa SSE 3.5 mph /  5.6 km/h 3.5 mph /  5.6 km/h 40 % 0 in /  0.0 mm
12:25 74.5 °F /  23.6 °C 48.6 °F /  9.2 °C 30.1 in /  1017.8 hPa SSE 3.5 mph /  5.6 km/h 3.5 mph /  5.6 km/h 40 % 0 in /  0.0 mm
12:30 74.5 °F /  23.6 °C 47.8 °F /  8.8 °C 30.1 in /  1017.8 hPa ESE 3.5 mph /  5.6 km/h 3.5 mph /  5.6 km/h 39 % 0 in /  0.0 mm
12:35 74.5 °F /  23.6 °C 47.8 °F /  8.8 °C 30.1 in /  1017.8 hPa ENE 2.6 mph /  4.2 km/h 2.9 mph /  4.7 km/h 39 % 0 in /  0.0 mm
12:40 75.4 °F /  24.1 °C 49.5 °F /  9.7 °C 30.1 in /  1017.8 hPa NE 3.5 mph /  5.6 km/h 3.5 mph /  5.6 km/h 40 % 0 in /  0.0 mm
12:45 75.6 °F /  24.2 °C 48.9 °F /  9.4 °C 30.1 in /  1017.8 hPa SSE 4.6 mph /  7.4 km/h 4.6 mph /  7.4 km/h 39 % 0 in /  0.0 mm
12:50 75.9 °F /  24.4 °C 49.3 °F /  9.6 °C 30.1 in /  1017.8 hPa SW 4.6 mph /  7.4 km/h 4.6 mph /  7.4 km/h 39 % 0 in /  0.0 mm
12:55 75.4 °F /  24.1 °C 48 °F /  8.9 °C 30.1 in /  1017.8 hPa North 2.3 mph /  3.7 km/h 2.3 mph /  3.7 km/h 38 % 0 in /  0.0 mm
13:00 76.6 °F /  24.8 °C 49.1 °F /  9.5 °C 30.1 in /  1017.8 hPa East 5.9 mph /  9.5 km/h 5.9 mph /  9.5 km/h 38 % 0 in /  0.0 mm
13:05 75.9 °F /  24.4 °C 47.8 °F /  8.8 °C 30.1 in /  1017.8 hPa ESE 5.8 mph /  9.3 km/h 5.8 mph /  9.3 km/h 37 % 0 in /  0.0 mm
13:10 75.7 °F /  24.3 °C 48.4 °F /  9.1 °C 30.1 in /  1017.8 hPa NNE 6.9 mph /  11.1 km/h 6.9 mph /  11.1 km/h 38 % 0 in /  0.0 mm
13:15 75.9 °F /  24.4 °C 47.8 °F /  8.8 °C 30.1 in /  1017.8 hPa East 4.6 mph /  7.4 km/h 4.6 mph /  7.4 km/h 37 % 0 in /  0.0 mm
13:20 77.7 °F /  25.4 °C 48.6 °F /  9.2 °C 30.1 in /  1017.8 hPa SSW 5.4 mph /  8.7 km/h 5.4 mph /  8.7 km/h 36 % 0 in /  0.0 mm
13:25 77.5 °F /  25.3 °C 47.7 °F /  8.7 °C 30.1 in /  1017.8 hPa SW 2.3 mph /  3.7 km/h 2.3 mph /  3.7 km/h 35 % 0 in /  0.0 mm
13:30 77.5 °F /  25.3 °C 47.7 °F /  8.7 °C 30.1 in /  1017.8 hPa SW 3.5 mph /  5.6 km/h 3.5 mph /  5.6 km/h 35 % 0 in /  0.0 mm
13:35 79 °F /  26.1 °C 48.9 °F /  9.4 °C 30.1 in /  1017.8 hPa WNW 3.5 mph /  5.6 km/h 3.5 mph /  5.6 km/h 35 % 0 in /  0.0 mm
13:40 78.1 °F /  25.6 °C 47.5 °F /  8.6 °C 30.1 in /  1017.8 hPa WSW 6.9 mph /  11.1 km/h 6.9 mph /  11.1 km/h 34 % 0 in /  0.0 mm
13:45 77.7 °F /  25.4 °C 47.1 °F /  8.4 °C 30.1 in /  1017.8 hPa West 3.5 mph /  5.6 km/h 3.5 mph /  5.6 km/h 34 % 0 in /  0.0 mm
13:50 77.2 °F /  25.1 °C 45.9 °F /  7.7 °C 30.1 in /  1017.8 hPa South 4.6 mph /  7.4 km/h 4.6 mph /  7.4 km/h 33 % 0 in /  0.0 mm
13:56 77.7 °F /  25.4 °C 44.8 °F /  7.1 °C 30.1 in /  1017.8 hPa NE 5.8 mph /  9.3 km/h 5.8 mph /  9.3 km/h 31 % 0 in /  0.0 mm
14:01 77.5 °F /  25.3 °C 45.3 °F /  7.4 °C 30.1 in /  1017.8 hPa SW 4.6 mph /  7.4 km/h 4.6 mph /  7.4 km/h 32 % 0 in /  0.0 mm
14:06 78.1 °F /  25.6 °C 45 °F /  7.2 °C 30.1 in /  1017.8 hPa ESE 6 mph /  9.7 km/h 6 mph /  9.7 km/h 31 % 0 in /  0.0 mm
14:11 77.2 °F /  25.1 °C 45 °F /  7.2 °C 30.1 in /  1017.8 hPa NNE 3.5 mph /  5.6 km/h 3.5 mph /  5.6 km/h 32 % 0 in /  0.0 mm
14:16 77.9 °F /  25.5 °C 45.7 °F /  7.6 °C 30.1 in /  1017.8 hPa WNW 4.6 mph /  7.4 km/h 4.6 mph /  7.4 km/h 32 % 0 in /  0.0 mm
14:21 78.4 °F /  25.8 °C 45.3 °F /  7.4 °C 30.1 in /  1017.8 hPa East 4.6 mph /  7.4 km/h 4.6 mph /  7.4 km/h 31 % 0 in /  0.0 mm
14:26 77.9 °F /  25.5 °C 44.8 °F /  7.1 °C 30.1 in /  1017.8 hPa South 4.6 mph /  7.4 km/h 4.6 mph /  7.4 km/h 31 % 0 in /  0.0 mm
14:31 78.4 °F /  25.8 °C 45.3 °F /  7.4 °C 30 in /  1016.8 hPa WNW 3.5 mph /  5.6 km/h 3.5 mph /  5.6 km/h 31 % 0 in /  0.0 mm
14:36 79.2 °F /  26.2 °C 45.9 °F /  7.7 °C 30 in /  1016.8 hPa WSW 3.1 mph /  5.0 km/h 3.1 mph /  5.0 km/h 31 % 0 in /  0.0 mm
14:41 78.8 °F /  26.0 °C 45.7 °F /  7.6 °C 30 in /  1016.8 hPa WNW 3.5 mph /  5.6 km/h 3.5 mph /  5.6 km/h 31 % 0 in /  0.0 mm
14:46 78.3 °F /  25.7 °C 44.2 °F /  6.8 °C 30 in /  1016.8 hPa NNE 3.3 mph /  5.3 km/h 3.3 mph /  5.3 km/h 30 % 0 in /  0.0 mm
14:51 78.4 °F /  25.8 °C 44.4 °F /  6.9 °C 30 in /  1016.8 hPa ESE 2.9 mph /  4.7 km/h 2.9 mph /  4.7 km/h 30 % 0 in /  0.0 mm
14:56 77.7 °F /  25.4 °C 43.9 °F /  6.6 °C 30 in /  1016.8 hPa ENE 3.6 mph /  5.8 km/h 3.6 mph /  5.8 km/h 30 % 0 in /  0.0 mm
15:01 77.5 °F /  25.3 °C 44.4 °F /  6.9 °C 30 in /  1016.8 hPa ESE 5.8 mph /  9.3 km/h 5.8 mph /  9.3 km/h 31 % 0 in /  0.0 mm
15:06 76.5 °F /  24.7 °C 44.4 °F /  6.9 °C 30 in /  1016.8 hPa ESE 5.8 mph /  9.3 km/h 5.8 mph /  9.3 km/h 32 % 0 in /  0.0 mm
15:11 76.6 °F /  24.8 °C 45.3 °F /  7.4 °C 30 in /  1016.8 hPa ESE 10.5 mph /  16.9 km/h 10.5 mph /  16.9 km/h 33 % 0 in /  0.0 mm
15:16 75.4 °F /  24.1 °C 44.2 °F /  6.8 °C 30.1 in /  1017.8 hPa ESE 12.7 mph /  20.4 km/h 12.7 mph /  20.4 km/h 33 % 0 in /  0.0 mm
15:21 74.8 °F /  23.8 °C 44.6 °F /  7.0 °C 30.1 in /  1017.8 hPa ENE 10.4 mph /  16.7 km/h 10.4 mph /  16.7 km/h 34 % 0 in /  0.0 mm
15:26 74.3 °F /  23.5 °C 45 °F /  7.2 °C 30.1 in /  1017.8 hPa ESE 10.7 mph /  17.2 km/h 10.7 mph /  17.2 km/h 35 % 0 in /  0.0 mm
15:31 73.9 °F /  23.3 °C 44.4 °F /  6.9 °C 30 in /  1016.8 hPa East 10.4 mph /  16.7 km/h 10.4 mph /  16.7 km/h 35 % 0 in /  0.0 mm
15:36 73.9 °F /  23.3 °C 45.3 °F /  7.4 °C 30 in /  1016.8 hPa ESE 10.5 mph /  16.9 km/h 10.5 mph /  16.9 km/h 36 % 0 in /  0.0 mm
15:41 74.1 °F /  23.4 °C 45.5 °F /  7.5 °C 30 in /  1016.8 hPa East 6.9 mph /  11.1 km/h 6.9 mph /  11.1 km/h 36 % 0 in /  0.0 mm
15:46 74.1 °F /  23.4 °C 45.5 °F /  7.5 °C 30.1 in /  1017.8 hPa East 6.9 mph /  11.1 km/h 6.9 mph /  11.1 km/h 36 % 0 in /  0.0 mm
15:51 73.8 °F /  23.2 °C 45.9 °F /  7.7 °C 30.1 in /  1017.8 hPa SE 8.1 mph /  13.0 km/h 8.1 mph /  13.0 km/h 37 % 0 in /  0.0 mm
15:56 73.8 °F /  23.2 °C 45.9 °F /  7.7 °C 30.1 in /  1017.8 hPa ENE 6.2 mph /  10.0 km/h 6.2 mph /  10.0 km/h 37 % 0 in /  0.0 mm
16:01 73.4 °F /  23.0 °C 45.5 °F /  7.5 °C 30.1 in /  1017.8 hPa ESE 10.4 mph /  16.7 km/h 10.4 mph /  16.7 km/h 37 % 0 in /  0.0 mm
16:06 73.2 °F /  22.9 °C 46 °F /  7.8 °C 30.1 in /  1017.8 hPa ESE 8.1 mph /  13.0 km/h 8.1 mph /  13.0 km/h 38 % 0 in /  0.0 mm
16:11 74.3 °F /  23.5 °C 46.2 °F /  7.9 °C 30.1 in /  1017.8 hPa East 6.9 mph /  11.1 km/h 6.9 mph /  11.1 km/h 37 % 0 in /  0.0 mm
16:16 73.9 °F /  23.3 °C 46 °F /  7.8 °C 30.1 in /  1017.8 hPa ESE 9.2 mph /  14.8 km/h 9.2 mph /  14.8 km/h 37 % 0 in /  0.0 mm
16:21 74.3 °F /  23.5 °C 46.2 °F /  7.9 °C 30.1 in /  1017.8 hPa ESE 8.1 mph /  13.0 km/h 8.1 mph /  13.0 km/h 37 % 0 in /  0.0 mm
16:26 75.2 °F /  24.0 °C 47.8 °F /  8.8 °C 30.1 in /  1017.8 hPa East 6.9 mph /  11.1 km/h 6.9 mph /  11.1 km/h 38 % 0 in /  0.0 mm
16:31 74.5 °F /  23.6 °C 47.1 °F /  8.4 °C 30.1 in /  1017.8 hPa ENE 10.4 mph /  16.7 km/h 10.4 mph /  16.7 km/h 38 % 0 in /  0.0 mm
16:36 74.7 °F /  23.7 °C 46.8 °F /  8.2 °C 30.1 in /  1017.8 hPa SE 8.1 mph /  13.0 km/h 8.1 mph /  13.0 km/h 37 % 0 in /  0.0 mm
16:41 74.7 °F /  23.7 °C 46.8 °F /  8.2 °C 30.1 in /  1017.8 hPa ESE 10.7 mph /  17.2 km/h 10.7 mph /  17.2 km/h 37 % 0 in /  0.0 mm
16:46 73.9 °F /  23.3 °C 46.8 °F /  8.2 °C 30.1 in /  1017.8 hPa ESE 9.2 mph /  14.8 km/h 9.2 mph /  14.8 km/h 38 % 0 in /  0.0 mm
16:51 73.6 °F /  23.1 °C 46.4 °F /  8.0 °C 30.1 in /  1017.8 hPa East 9.2 mph /  14.8 km/h 9.2 mph /  14.8 km/h 38 % 0 in /  0.0 mm
16:56 73.9 °F /  23.3 °C 46.8 °F /  8.2 °C 30.1 in /  1017.8 hPa ENE 5.8 mph /  9.3 km/h 5.8 mph /  9.3 km/h 38 % 0 in /  0.0 mm
17:01 73.8 °F /  23.2 °C 46.6 °F /  8.1 °C 30.1 in /  1017.8 hPa ESE 8.1 mph /  13.0 km/h 8.1 mph /  13.0 km/h 38 % 0 in /  0.0 mm
17:06 73.8 °F /  23.2 °C 46.6 °F /  8.1 °C 30.1 in /  1017.8 hPa ESE 6 mph /  9.7 km/h 6 mph /  9.7 km/h 38 % 0 in /  0.0 mm
17:11 73.6 °F /  23.1 °C 46.4 °F /  8.0 °C 30.1 in /  1017.8 hPa ESE 9.2 mph /  14.8 km/h 9.2 mph /  14.8 km/h 38 % 0 in /  0.0 mm
17:16 73.2 °F /  22.9 °C 46.8 °F /  8.2 °C 30.1 in /  1017.8 hPa NE 8.1 mph /  13.0 km/h 8.1 mph /  13.0 km/h 39 % 0 in /  0.0 mm
17:21 73.4 °F /  23.0 °C 46.2 °F /  7.9 °C 30.1 in /  1017.8 hPa ENE 9.2 mph /  14.8 km/h 9.2 mph /  14.8 km/h 38 % 0 in /  0.0 mm
17:26 73.2 °F /  22.9 °C 46.8 °F /  8.2 °C 30.1 in /  1017.8 hPa East 4.6 mph /  7.4 km/h 4.6 mph /  7.4 km/h 39 % 0 in /  0.0 mm
17:31 73 °F /  22.8 °C 46.6 °F /  8.1 °C 30.1 in /  1017.8 hPa ENE 10.4 mph /  16.7 km/h 10.4 mph /  16.7 km/h 39 % 0 in /  0.0 mm
17:36 72.7 °F /  22.6 °C 46.2 °F /  7.9 °C 30.1 in /  1017.8 hPa ESE 12.7 mph /  20.4 km/h 12.7 mph /  20.4 km/h 39 % 0 in /  0.0 mm
17:41 72.3 °F /  22.4 °C 46 °F /  7.8 °C 30.1 in /  1017.8 hPa SSE 11.5 mph /  18.5 km/h 11.5 mph /  18.5 km/h 39 % 0 in /  0.0 mm
17:46 72.1 °F /  22.3 °C 45.9 °F /  7.7 °C 30.1 in /  1017.8 hPa South 5.8 mph /  9.3 km/h 5.8 mph /  9.3 km/h 39 % 0 in /  0.0 mm
17:51 72 °F /  22.2 °C 45.7 °F /  7.6 °C 30.1 in /  1017.8 hPa ESE 13.8 mph /  22.2 km/h 13.8 mph /  22.2 km/h 39 % 0 in /  0.0 mm
17:56 71.8 °F /  22.1 °C 46.2 °F /  7.9 °C 30.1 in /  1017.8 hPa East 9.2 mph /  14.8 km/h 9.2 mph /  14.8 km/h 40 % 0 in /  0.0 mm
18:01 71.6 °F /  22.0 °C 46 °F /  7.8 °C 30.1 in /  1017.8 hPa ESE 8.1 mph /  13.0 km/h 8.1 mph /  13.0 km/h 40 % 0 in /  0.0 mm
18:06 71.6 °F /  22.0 °C 46 °F /  7.8 °C 30.1 in /  1017.8 hPa SE 10.4 mph /  16.7 km/h 10.4 mph /  16.7 km/h 40 % 0 in /  0.0 mm
18:11 71.4 °F /  21.9 °C 45.9 °F /  7.7 °C 30.1 in /  1017.8 hPa NNE 8.1 mph /  13.0 km/h 8.1 mph /  13.0 km/h 40 % 0 in /  0.0 mm
18:16 71.4 °F /  21.9 °C 45.9 °F /  7.7 °C 30.1 in /  1017.8 hPa ESE 9.2 mph /  14.8 km/h 9.2 mph /  14.8 km/h 40 % 0 in /  0.0 mm
18:21 70.9 °F /  21.6 °C 45.3 °F /  7.4 °C 30.1 in /  1017.8 hPa NNE 9.8 mph /  15.8 km/h 9.8 mph /  15.8 km/h 40 % 0 in /  0.0 mm
18:26 70.9 °F /  21.6 °C 46 °F /  7.8 °C 30.1 in /  1017.8 hPa ENE 6.9 mph /  11.1 km/h 6.9 mph /  11.1 km/h 41 % 0 in /  0.0 mm
18:31 70.3 °F /  21.3 °C 45.5 °F /  7.5 °C 30.1 in /  1017.8 hPa ESE 8.1 mph /  13.0 km/h 8.1 mph /  13.0 km/h 41 % 0 in /  0.0 mm
18:36 70.2 °F /  21.2 °C 45.3 °F /  7.4 °C 30.1 in /  1017.8 hPa East 5.8 mph /  9.3 km/h 5.8 mph /  9.3 km/h 41 % 0 in /  0.0 mm
18:41 70.2 °F /  21.2 °C 45.3 °F /  7.4 °C 30.1 in /  1017.8 hPa East 6.9 mph /  11.1 km/h 6.9 mph /  11.1 km/h 41 % 0 in /  0.0 mm
18:46 70.2 °F /  21.2 °C 45.3 °F /  7.4 °C 30.1 in /  1017.8 hPa NNE 8.1 mph /  13.0 km/h 8.1 mph /  13.0 km/h 41 % 0 in /  0.0 mm
18:51 70.2 °F /  21.2 °C 45.3 °F /  7.4 °C 30.1 in /  1017.8 hPa WNW 4.6 mph /  7.4 km/h 4.6 mph /  7.4 km/h 41 % 0 in /  0.0 mm
18:56 70 °F /  21.1 °C 45.1 °F /  7.3 °C 30.1 in /  1017.8 hPa East 7.6 mph /  12.2 km/h 7.6 mph /  12.2 km/h 41 % 0 in /  0.0 mm
19:01 69.8 °F /  21.0 °C 45 °F /  7.2 °C 30.1 in /  1017.8 hPa NE 8.1 mph /  13.0 km/h 8.1 mph /  13.0 km/h 41 % 0 in /  0.0 mm
19:06 69.6 °F /  20.9 °C 45.5 °F /  7.5 °C 30.1 in /  1017.8 hPa North 6.9 mph /  11.1 km/h 6.9 mph /  11.1 km/h 42 % 0 in /  0.0 mm
19:11 69.8 °F /  21.0 °C 45.7 °F /  7.6 °C 30.1 in /  1018.8 hPa ENE 6.2 mph /  10.0 km/h 6.2 mph /  10.0 km/h 42 % 0 in /  0.0 mm
19:16 69.4 °F /  20.8 °C 45.3 °F /  7.4 °C 30.1 in /  1018.8 hPa NE 6.9 mph /  11.1 km/h 6.9 mph /  11.1 km/h 42 % 0 in /  0.0 mm
19:18 69.4 °F /  20.8 °C 46 °F /  7.8 °C 30.1 in /  1018.8 hPa NNE 4.6 mph /  7.4 km/h 4.6 mph /  7.4 km/h 43 % 0 in /  0.0 mm
19:23 69.3 °F /  20.7 °C 45.9 °F /  7.7 °C 30.1 in /  1018.8 hPa NNE 7.1 mph /  11.4 km/h 7.1 mph /  11.4 km/h 43 % 0 in /  0.0 mm
19:28 69.3 °F /  20.7 °C 45.9 °F /  7.7 °C 30.1 in /  1018.8 hPa East 8.1 mph /  13.0 km/h 8.1 mph /  13.0 km/h 43 % 0 in /  0.0 mm
19:33 69.1 °F /  20.6 °C 45.7 °F /  7.6 °C 30.1 in /  1018.8 hPa North 5.8 mph /  9.3 km/h 5.8 mph /  9.3 km/h 43 % 0 in /  0.0 mm
19:38 69.1 °F /  20.6 °C 45.7 °F /  7.6 °C 30.1 in /  1018.8 hPa ESE 5.8 mph /  9.3 km/h 5.8 mph /  9.3 km/h 43 % 0 in /  0.0 mm
19:43 68.9 °F /  20.5 °C 45.5 °F /  7.5 °C 30.1 in /  1018.8 hPa NNE 8.1 mph /  13.0 km/h 8.1 mph /  13.0 km/h 43 % 0 in /  0.0 mm
19:48 68.7 °F /  20.4 °C 44.8 °F /  7.1 °C 30.1 in /  1018.8 hPa ENE 6.9 mph /  11.1 km/h 6.9 mph /  11.1 km/h 42 % 0 in /  0.0 mm
19:53 68.7 °F /  20.4 °C 45.3 °F /  7.4 °C 30.1 in /  1018.8 hPa NNE 6.9 mph /  11.1 km/h 6.9 mph /  11.1 km/h 43 % 0 in /  0.0 mm
19:58 68.5 °F /  20.3 °C 45.1 °F /  7.3 °C 30.1 in /  1018.8 hPa NE 4.9 mph /  7.9 km/h 4.9 mph /  7.9 km/h 43 % 0 in /  0.0 mm
20:03 68.5 °F /  20.3 °C 45.1 °F /  7.3 °C 30.1 in /  1018.8 hPa North 4.6 mph /  7.4 km/h 4.6 mph /  7.4 km/h 43 % 0 in /  0.0 mm
20:08 68.5 °F /  20.3 °C 45.9 °F /  7.7 °C 30.1 in /  1018.8 hPa ENE 5.8 mph /  9.3 km/h 5.8 mph /  9.3 km/h 44 % 0 in /  0.0 mm
20:13 68.4 °F /  20.2 °C 45.7 °F /  7.6 °C 30.1 in /  1018.8 hPa NE 5.8 mph /  9.3 km/h 5.8 mph /  9.3 km/h 44 % 0 in /  0.0 mm
20:18 68.2 °F /  20.1 °C 45.3 °F /  7.4 °C 30.1 in /  1018.8 hPa ENE 5.8 mph /  9.3 km/h 5.8 mph /  9.3 km/h 44 % 0 in /  0.0 mm
20:23 68.2 °F /  20.1 °C 46 °F /  7.8 °C 30.1 in /  1018.8 hPa East 8.1 mph /  13.0 km/h 8.1 mph /  13.0 km/h 45 % 0 in /  0.0 mm
20:28 68.4 °F /  20.2 °C 46.2 °F /  7.9 °C 30.1 in /  1018.8 hPa East 5.8 mph /  9.3 km/h 5.8 mph /  9.3 km/h 45 % 0 in /  0.0 mm
20:33 68.2 °F /  20.1 °C 46 °F /  7.8 °C 30.1 in /  1018.8 hPa ENE 4.6 mph /  7.4 km/h 4.6 mph /  7.4 km/h 45 % 0 in /  0.0 mm
20:38 68 °F /  20.0 °C 45.9 °F /  7.7 °C 30.1 in /  1018.8 hPa ENE 4.6 mph /  7.4 km/h 4.6 mph /  7.4 km/h 45 % 0 in /  0.0 mm
20:43 67.8 °F /  19.9 °C 45.7 °F /  7.6 °C 30.1 in /  1019.9 hPa ENE 5.8 mph /  9.3 km/h 5.8 mph /  9.3 km/h 45 % 0 in /  0.0 mm
20:48 67.8 °F /  19.9 °C 46.2 °F /  7.9 °C 30.1 in /  1019.9 hPa ENE 5.8 mph /  9.3 km/h 5.8 mph /  9.3 km/h 46 % 0 in /  0.0 mm
20:53 67.8 °F /  19.9 °C 46.2 °F /  7.9 °C 30.1 in /  1019.9 hPa ESE 5.8 mph /  9.3 km/h 5.8 mph /  9.3 km/h 46 % 0 in /  0.0 mm
20:58 67.8 °F /  19.9 °C 46.2 °F /  7.9 °C 30.1 in /  1018.8 hPa NNE 4 mph /  6.4 km/h 4 mph /  6.4 km/h 46 % 0 in /  0.0 mm
21:03 67.6 °F /  19.8 °C 46 °F /  7.8 °C 30.1 in /  1018.8 hPa ENE 5.8 mph /  9.3 km/h 5.8 mph /  9.3 km/h 46 % 0 in /  0.0 mm
21:08 67.6 °F /  19.8 °C 46 °F /  7.8 °C 30.1 in /  1018.8 hPa ENE 3.5 mph /  5.6 km/h 3.5 mph /  5.6 km/h 46 % 0 in /  0.0 mm
21:13 67.6 °F /  19.8 °C 46 °F /  7.8 °C 30.1 in /  1019.9 hPa ENE 3.5 mph /  5.6 km/h 3.5 mph /  5.6 km/h 46 % 0 in /  0.0 mm
21:18 67.5 °F /  19.7 °C 46.6 °F /  8.1 °C 30.1 in /  1019.9 hPa North 3.5 mph /  5.6 km/h 3.5 mph /  5.6 km/h 47 % 0 in /  0.0 mm
21:23 67.5 °F /  19.7 °C 46.6 °F /  8.1 °C 30.1 in /  1019.9 hPa NNE 3.5 mph /  5.6 km/h 3.5 mph /  5.6 km/h 47 % 0 in /  0.0 mm
21:28 67.3 °F /  19.6 °C 46.4 °F /  8.0 °C 30.1 in /  1019.9 hPa NE 4.6 mph /  7.4 km/h 4.6 mph /  7.4 km/h 47 % 0 in /  0.0 mm
21:33 67.3 °F /  19.6 °C 46.4 °F /  8.0 °C 30.1 in /  1019.9 hPa East 4.6 mph /  7.4 km/h 4.6 mph /  7.4 km/h 47 % 0 in /  0.0 mm
21:38 67.3 °F /  19.6 °C 46.4 °F /  8.0 °C 30.1 in /  1019.9 hPa ENE 3.6 mph /  5.8 km/h 3.6 mph /  5.8 km/h 47 % 0 in /  0.0 mm
21:43 67.1 °F /  19.5 °C 46.2 °F /  7.9 °C 30.1 in /  1019.9 hPa NE 3.6 mph /  5.8 km/h 3.6 mph /  5.8 km/h 47 % 0 in /  0.0 mm
21:48 67.1 °F /  19.5 °C 46.2 °F /  7.9 °C 30.1 in /  1019.9 hPa ENE 3.8 mph /  6.1 km/h 3.8 mph /  6.1 km/h 47 % 0 in /  0.0 mm
21:53 67.1 °F /  19.5 °C 46.2 °F /  7.9 °C 30.1 in /  1019.9 hPa North 2.9 mph /  4.7 km/h 2.9 mph /  4.7 km/h 47 % 0 in /  0.0 mm
21:58 67.1 °F /  19.5 °C 46.2 °F /  7.9 °C 30.1 in /  1019.9 hPa ESE 4.6 mph /  7.4 km/h 4.6 mph /  7.4 km/h 47 % 0 in /  0.0 mm
22:03 67.1 °F /  19.5 °C 46.8 °F /  8.2 °C 30.1 in /  1019.9 hPa ESE 4.6 mph /  7.4 km/h 4.6 mph /  7.4 km/h 48 % 0 in /  0.0 mm
22:08 67.1 °F /  19.5 °C 46.2 °F /  7.9 °C 30.1 in /  1019.9 hPa ENE 2.3 mph /  3.7 km/h 2.3 mph /  3.7 km/h 47 % 0 in /  0.0 mm
22:13 66.9 °F /  19.4 °C 46.6 °F /  8.1 °C 30.1 in /  1019.9 hPa ENE 3.5 mph /  5.6 km/h 3.5 mph /  5.6 km/h 48 % 0 in /  0.0 mm
22:18 66.9 °F /  19.4 °C 46.6 °F /  8.1 °C 30.1 in /  1019.9 hPa East 3.5 mph /  5.6 km/h 3.5 mph /  5.6 km/h 48 % 0 in /  0.0 mm
22:23 66.9 °F /  19.4 °C 46.6 °F /  8.1 °C 30.1 in /  1019.9 hPa ENE 3.5 mph /  5.6 km/h 3.5 mph /  5.6 km/h 48 % 0 in /  0.0 mm
22:28 66.7 °F /  19.3 °C 46.4 °F /  8.0 °C 30.1 in /  1019.9 hPa East 2.3 mph /  3.7 km/h 2.3 mph /  3.7 km/h 48 % 0 in /  0.0 mm
22:33 66.7 °F /  19.3 °C 46.4 °F /  8.0 °C 30.1 in /  1019.9 hPa ENE 2.4 mph /  3.9 km/h 2.4 mph /  3.9 km/h 48 % 0 in /  0.0 mm
22:38 66.7 °F /  19.3 °C 46.4 °F /  8.0 °C 30.1 in /  1019.9 hPa East 2.3 mph /  3.7 km/h 2.3 mph /  3.7 km/h 48 % 0 in /  0.0 mm
22:43 66.7 °F /  19.3 °C 46.4 °F /  8.0 °C 30.1 in /  1019.9 hPa NE 2.3 mph /  3.7 km/h 2.3 mph /  3.7 km/h 48 % 0 in /  0.0 mm
22:48 66.6 °F /  19.2 °C 46.2 °F /  7.9 °C 30.1 in /  1019.9 hPa ENE 2.3 mph /  3.7 km/h 2.3 mph /  3.7 km/h 48 % 0 in /  0.0 mm
22:53 66.6 °F /  19.2 °C 46.2 °F /  7.9 °C 30.1 in /  1019.9 hPa NE 2.3 mph /  3.7 km/h 2.3 mph /  3.7 km/h 48 % 0 in /  0.0 mm
22:58 66.6 °F /  19.2 °C 46.2 °F /  7.9 °C 30.1 in /  1019.9 hPa NE 1.2 mph /  1.9 km/h   48 % 0 in /  0.0 mm
23:03 66.6 °F /  19.2 °C 46.2 °F /  7.9 °C 30.1 in /  1019.9 hPa NE 1.4 mph /  2.3 km/h 1.4 mph /  2.3 km/h 48 % 0 in /  0.0 mm
23:08 66.6 °F /  19.2 °C 46.2 °F /  7.9 °C 30.1 in /  1019.9 hPa Calm     48 % 0 in /  0.0 mm
23:13 66.4 °F /  19.1 °C 46.6 °F /  8.1 °C 30.2 in /  1020.9 hPa NNE 1.2 mph /  1.9 km/h   49 % 0 in /  0.0 mm
23:18 66.4 °F /  19.1 °C 46.6 °F /  8.1 °C 30.2 in /  1020.9 hPa East 2 mph /  3.2 km/h 2 mph /  3.2 km/h 49 % 0 in /  0.0 mm
23:23 66.4 °F /  19.1 °C 46.6 °F /  8.1 °C 30.2 in /  1020.9 hPa Calm     49 % 0 in /  0.0 mm
23:28 66.2 °F /  19.0 °C 46.6 °F /  8.1 °C 30.2 in /  1020.9 hPa WNW 1.2 mph /  1.9 km/h 1.2 mph /  1.9 km/h 49 % 0 in /  0.0 mm
23:33 66.2 °F /  19.0 °C 46.6 °F /  8.1 °C 30.2 in /  1020.9 hPa Calm     49 % 0 in /  0.0 mm
23:38 66.2 °F /  19.0 °C 46.6 °F /  8.1 °C 30.2 in /  1020.9 hPa Calm     49 % 0 in /  0.0 mm
23:43 66.2 °F /  19.0 °C 46.6 °F /  8.1 °C 30.2 in /  1020.9 hPa Calm     49 % 0 in /  0.0 mm
23:48 66.2 °F /  19.0 °C 46.6 °F /  8.1 °C 30.2 in /  1020.9 hPa NNE 1.2 mph /  1.9 km/h   49 % 0 in /  0.0 mm
23:53 66.2 °F /  19.0 °C 46.6 °F /  8.1 °C 30.2 in /  1020.9 hPa Calm     49 % 0 in /  0.0 mm
23:58 66.2 °F /  19.0 °C 46.6 °F /  8.1 °C 30.1 in /  1019.9 hPa NNE 2.3 mph /  3.7 km/h 2.3 mph /  3.7 km/h 49 % 0 in /  0.0 mm
Meteo Sesrovires
Elogis d' Weather Underground - 3.75 mb

Guio original per  Jim McMurry - jmcmurry@mwt.net Adaptat per a la plantilla per  Wim van der Kuil - Leuven-Template.eu

Trobareu la nostra informacio del temps tambe a:

Weather Underground

AWEKAS